Weather at Vinaròs Airfield

Public forecast

Using degrees Celsius for public forecast. Weather courtesy of forecast.io.

Closest aviation weather report (METAR) to Vinaròs Airfield

Closest report is Reus Air Base, 51.6 nm (95.6 km) NE. Retrieved 2021/06/19 21:30 UTC (0 seconds ago):

LERS 192130Z 03004KT 350V050 9999 FEW017 23/21 Q1014

Closest aviation forecast (TAF) to Vinaròs Airfield

Closest forecast is Castellón-Costa Azahar Airport, 23.4 nm (43.3 km) SW. Retrieved 2021/06/19 18:00 UTC (3 hours ago):

TAF LECH 191700Z 1918/2018 VRB04KT 9999 FEW025 TX30/2013Z TN16/2006Z PROB40 TEMPO 2001/2006 4000 TSRA FEW050CB